createdAt,value
2023-05-09T00:00:05.101Z,9.747321
2023-05-09T00:01:05.093Z,9.747285
2023-05-09T00:02:05.085Z,9.747358
2023-05-09T00:03:06.258Z,9.747410
2023-05-09T00:04:05.092Z,9.747336
2023-05-09T00:05:05.109Z,9.747359
2023-05-09T00:06:05.051Z,9.747455
2023-05-09T00:07:05.094Z,9.747564
2023-05-09T00:08:05.065Z,9.747422
2023-05-09T00:09:05.012Z,9.747435
2023-05-09T00:10:06.018Z,9.747438
2023-05-09T00:11:05.001Z,9.747383
2023-05-09T00:12:05.066Z,9.747235
2023-05-09T00:13:05.092Z,9.747383
2023-05-09T00:14:04.997Z,9.747355
2023-05-09T00:15:05.069Z,9.747387
2023-05-09T00:16:05.087Z,9.747294
2023-05-09T00:17:05.014Z,9.747338
2023-05-09T00:18:05.101Z,9.747419
2023-05-09T00:19:05.057Z,9.747403
2023-05-09T00:20:05.052Z,9.747538
2023-05-09T00:21:05.081Z,9.747579
2023-05-09T00:22:04.950Z,9.747382
2023-05-09T00:23:04.915Z,9.747412
2023-05-09T00:24:04.899Z,9.747340
2023-05-09T00:25:04.896Z,9.747270
2023-05-09T00:26:04.916Z,9.747328
2023-05-09T00:27:04.879Z,9.747538
2023-05-09T00:28:04.874Z,9.747458
2023-05-09T00:29:04.865Z,9.747425
2023-05-09T00:30:04.872Z,9.747430
2023-05-09T00:31:04.892Z,9.747494
2023-05-09T00:32:04.888Z,9.747486
2023-05-09T00:33:04.882Z,9.747300
2023-05-09T00:34:04.841Z,9.747591
2023-05-09T00:35:04.905Z,9.747574
2023-05-09T00:36:04.842Z,9.747461
2023-05-09T00:37:04.804Z,9.747448
2023-05-09T00:38:04.842Z,9.747411
2023-05-09T00:39:04.797Z,9.747496
2023-05-09T00:40:04.808Z,9.747511
2023-05-09T00:41:04.808Z,9.747440
2023-05-09T00:42:04.776Z,9.747373
2023-05-09T00:43:04.766Z,9.747404
2023-05-09T00:44:04.757Z,9.747407
2023-05-09T00:45:04.771Z,9.747463
2023-05-09T00:46:04.812Z,9.747431
2023-05-09T00:47:04.733Z,9.747436
2023-05-09T00:48:04.774Z,9.747561
2023-05-09T00:49:04.736Z,9.747740
2023-05-09T00:50:04.734Z,9.747587
2023-05-09T00:51:04.785Z,9.747472
2023-05-09T00:52:04.758Z,9.747537
2023-05-09T00:53:04.715Z,9.747618
2023-05-09T00:54:05.557Z,9.747657
2023-05-09T00:55:04.777Z,9.747521
2023-05-09T00:56:04.655Z,9.747573
2023-05-09T00:57:04.669Z,9.747617
2023-05-09T00:58:04.649Z,9.747561
2023-05-09T00:59:04.671Z,9.747344
2023-05-09T01:00:04.653Z,9.747506
2023-05-09T01:01:04.684Z,9.747484
2023-05-09T01:02:04.649Z,9.747483
2023-05-09T01:03:04.667Z,9.747473
2023-05-09T01:04:04.625Z,9.747508
2023-05-09T01:05:04.591Z,9.747494
2023-05-09T01:06:04.599Z,9.747382
2023-05-09T01:07:04.653Z,9.747467
2023-05-09T01:08:04.595Z,9.747495
2023-05-09T01:09:04.585Z,9.747510
2023-05-09T01:10:04.550Z,9.747511
2023-05-09T01:11:04.554Z,9.747502
2023-05-09T01:12:04.543Z,9.747700
2023-05-09T01:13:04.589Z,9.747593
2023-05-09T01:14:04.521Z,9.747551
2023-05-09T01:15:04.512Z,9.747659
2023-05-09T01:16:04.555Z,9.747623
2023-05-09T01:17:04.499Z,9.747599
2023-05-09T01:18:04.586Z,9.747551
2023-05-09T01:19:04.494Z,9.747481
2023-05-09T01:20:04.491Z,9.747515
2023-05-09T01:21:04.480Z,9.747528
2023-05-09T01:22:04.494Z,9.747383
2023-05-09T01:23:04.572Z,9.747447
2023-05-09T01:24:04.464Z,9.747665
2023-05-09T01:25:04.449Z,9.747596
2023-05-09T01:26:04.440Z,9.747549
2023-05-09T01:27:04.455Z,9.747630
2023-05-09T01:28:04.419Z,9.747696
2023-05-09T01:29:04.419Z,9.747616
2023-05-09T01:30:04.428Z,9.747588
2023-05-09T01:31:04.408Z,9.747571
2023-05-09T01:32:04.426Z,9.747610
2023-05-09T01:33:04.450Z,9.747655
2023-05-09T01:34:04.392Z,9.747527
2023-05-09T01:35:04.393Z,9.747618
2023-05-09T01:36:04.392Z,9.747479
2023-05-09T01:37:04.374Z,9.747415
2023-05-09T01:38:04.337Z,9.747460
2023-05-09T01:39:04.426Z,9.747583
2023-05-09T01:40:04.340Z,9.747499
2023-05-09T01:41:04.347Z,9.747478
2023-05-09T01:42:04.310Z,9.747629
2023-05-09T01:43:04.302Z,9.747618
2023-05-09T01:44:04.297Z,9.747591
2023-05-09T01:45:04.288Z,9.747568
2023-05-09T01:46:04.301Z,9.747549
2023-05-09T01:47:04.276Z,9.747437
2023-05-09T01:48:04.330Z,9.747478
2023-05-09T01:49:04.261Z,9.747484
2023-05-09T01:50:04.282Z,9.747582
2023-05-09T01:51:04.262Z,9.747625
2023-05-09T01:52:04.240Z,9.747375
2023-05-09T01:53:04.228Z,9.747465
2023-05-09T01:54:04.210Z,9.747414
2023-05-09T01:55:04.325Z,9.747389
2023-05-09T01:56:04.205Z,9.747394
2023-05-09T01:57:04.197Z,9.747486
2023-05-09T01:58:04.197Z,9.747480
2023-05-09T01:59:04.190Z,9.747354
2023-05-09T02:00:04.204Z,9.747425
2023-05-09T02:01:04.197Z,9.747570
2023-05-09T02:02:04.177Z,9.747457
2023-05-09T02:03:04.168Z,9.747409
2023-05-09T02:04:04.169Z,9.747588
2023-05-09T02:05:04.156Z,9.747580
2023-05-09T02:06:04.133Z,9.747497
2023-05-09T02:07:04.122Z,9.747734
2023-05-09T02:08:04.116Z,9.747712
2023-05-09T02:09:04.140Z,9.747581
2023-05-09T02:10:04.104Z,9.747647
2023-05-09T02:11:04.204Z,9.747556
2023-05-09T02:12:04.077Z,9.747518
2023-05-09T02:13:04.162Z,9.747597
2023-05-09T02:14:04.090Z,9.747533
2023-05-09T02:15:04.052Z,9.747251
2023-05-09T02:16:04.060Z,9.747609
2023-05-09T02:17:04.081Z,9.747725
2023-05-09T02:18:04.101Z,9.747496
2023-05-09T02:19:04.060Z,9.747581
2023-05-09T02:20:04.024Z,9.747502
2023-05-09T02:21:04.042Z,9.747428
2023-05-09T02:22:04.003Z,9.747524
2023-05-09T02:23:04.043Z,9.747549
2023-05-09T02:24:03.986Z,9.747487
2023-05-09T02:25:03.978Z,9.747477
2023-05-09T02:26:03.980Z,9.747537
2023-05-09T02:27:04.045Z,9.747434
2023-05-09T02:28:03.983Z,9.747584
2023-05-09T02:29:03.952Z,9.747552
2023-05-09T02:30:03.937Z,9.747497
2023-05-09T02:31:03.928Z,9.747654
2023-05-09T02:32:03.972Z,9.747561
2023-05-09T02:33:03.993Z,9.747514
2023-05-09T02:34:03.925Z,9.747519
2023-05-09T02:35:03.910Z,9.747614
2023-05-09T02:36:03.937Z,9.747519
2023-05-09T02:37:05.031Z,9.747475
2023-05-09T02:38:03.887Z,9.747466
2023-05-09T02:39:03.873Z,9.747512
2023-05-09T02:40:03.868Z,9.747441
2023-05-09T02:41:03.883Z,9.747200
2023-05-09T02:42:03.876Z,9.747307
2023-05-09T02:43:03.917Z,9.747473
2023-05-09T02:44:03.836Z,9.747527
2023-05-09T02:45:03.839Z,9.747442
2023-05-09T02:46:03.872Z,9.747408
2023-05-09T02:47:03.848Z,9.747521
2023-05-09T02:48:05.670Z,9.747499
2023-05-09T02:49:03.790Z,9.747561
2023-05-09T02:50:04.812Z,9.747601
2023-05-09T02:51:03.865Z,9.747508
2023-05-09T02:52:03.793Z,9.747592
2023-05-09T02:53:03.789Z,9.747714
2023-05-09T02:54:03.755Z,9.747584
2023-05-09T02:55:03.763Z,9.747580
2023-05-09T02:56:03.766Z,9.747470
2023-05-09T02:57:03.751Z,9.747442
2023-05-09T02:58:13.614Z,9.747398
2023-05-09T02:59:05.796Z,9.747508
2023-05-09T03:00:03.713Z,9.747502
2023-05-09T03:01:03.797Z,9.747410
2023-05-09T03:02:03.697Z,9.747244
2023-05-09T03:03:03.730Z,9.747304
2023-05-09T03:04:03.680Z,9.747256
2023-05-09T03:05:03.750Z,9.747201
2023-05-09T03:06:03.693Z,9.747294
2023-05-09T03:07:03.655Z,9.747367
2023-05-09T03:08:03.647Z,9.747289
2023-05-09T03:09:03.659Z,9.747216
2023-05-09T03:10:03.668Z,9.747367
2023-05-09T03:11:03.665Z,9.747560
2023-05-09T03:12:03.642Z,9.747370
2023-05-09T03:13:03.687Z,9.747370
2023-05-09T03:14:03.608Z,9.747474
2023-05-09T03:15:03.744Z,9.747318
2023-05-09T03:16:03.640Z,9.747311
2023-05-09T03:17:03.585Z,9.747461
2023-05-09T03:18:03.665Z,9.747489
2023-05-09T03:19:03.603Z,9.747412
2023-05-09T03:20:04.472Z,9.747346
2023-05-09T03:21:04.545Z,9.747346
2023-05-09T03:22:03.540Z,9.747378
2023-05-09T03:23:03.540Z,9.747299
2023-05-09T03:24:03.555Z,9.747400
2023-05-09T03:25:03.515Z,9.747452
2023-05-09T03:26:03.520Z,9.747372
2023-05-09T03:27:03.505Z,9.747385
2023-05-09T03:28:03.497Z,9.747381
2023-05-09T03:29:03.519Z,9.747286
2023-05-09T03:30:03.507Z,9.747236
2023-05-09T03:31:03.577Z,9.747467
2023-05-09T03:32:03.475Z,9.747413
2023-05-09T03:33:03.558Z,9.747432
2023-05-09T03:34:03.481Z,9.747402
2023-05-09T03:35:03.436Z,9.747346
2023-05-09T03:36:03.458Z,9.747377
2023-05-09T03:37:03.430Z,9.747369
2023-05-09T03:38:03.460Z,9.747315
2023-05-09T03:39:03.414Z,9.747402
2023-05-09T03:40:03.405Z,9.747375
2023-05-09T03:41:03.410Z,9.747353
2023-05-09T03:42:03.390Z,9.747346
2023-05-09T03:43:03.431Z,9.747332
2023-05-09T03:44:03.406Z,9.747362
2023-05-09T03:45:03.392Z,9.747359
2023-05-09T03:46:03.372Z,9.747383
2023-05-09T03:47:03.533Z,9.747429
2023-05-09T03:48:03.403Z,9.747326
2023-05-09T03:49:03.347Z,9.747274
2023-05-09T03:50:03.353Z,9.747393
2023-05-09T03:51:03.341Z,9.747398
2023-05-09T03:52:03.354Z,9.747327
2023-05-09T03:53:03.314Z,9.747377
2023-05-09T03:54:03.315Z,9.747360
2023-05-09T03:55:03.293Z,9.747429
2023-05-09T03:56:04.297Z,9.747381
2023-05-09T03:57:03.308Z,9.747397
2023-05-09T03:58:03.274Z,9.747381
2023-05-09T03:59:03.281Z,9.747387
2023-05-09T04:00:03.279Z,9.747352
2023-05-09T04:01:03.260Z,9.747369
2023-05-09T04:02:03.375Z,9.747427
2023-05-09T04:03:03.309Z,9.747445
2023-05-09T04:04:03.277Z,9.747421
2023-05-09T04:05:03.248Z,9.747382
2023-05-09T04:06:03.233Z,9.747298
2023-05-09T04:07:03.231Z,9.747415
2023-05-09T04:08:03.207Z,9.747350
2023-05-09T04:09:03.203Z,9.747353
2023-05-09T04:10:03.197Z,9.747347
2023-05-09T04:11:03.189Z,9.747381
2023-05-09T04:12:04.165Z,9.747461
2023-05-09T04:13:03.260Z,9.747514
2023-05-09T04:14:03.159Z,9.747428
2023-05-09T04:15:03.169Z,9.747477
2023-05-09T04:16:03.182Z,9.747460
2023-05-09T04:17:03.373Z,9.747446
2023-05-09T04:18:04.209Z,9.747490
2023-05-09T04:19:03.203Z,9.747445
2023-05-09T04:20:03.181Z,9.747398
2023-05-09T04:21:03.132Z,9.747455
2023-05-09T04:22:03.183Z,9.747394
2023-05-09T04:23:03.106Z,9.747479
2023-05-09T04:24:03.090Z,9.747464
2023-05-09T04:25:03.113Z,9.747432
2023-05-09T04:26:03.096Z,9.747499
2023-05-09T04:27:03.067Z,9.747484
2023-05-09T04:28:03.056Z,9.747368
2023-05-09T04:29:03.051Z,9.747419
2023-05-09T04:30:03.076Z,9.747390
2023-05-09T04:31:03.108Z,9.747381
2023-05-09T04:32:03.143Z,9.747459
2023-05-09T04:33:03.086Z,9.747459
2023-05-09T04:34:03.042Z,9.747451
2023-05-09T04:35:03.112Z,9.747495
2023-05-09T04:36:02.994Z,9.747418
2023-05-09T04:37:03.019Z,9.747416
2023-05-09T04:38:03.003Z,9.747509
2023-05-09T04:39:03.007Z,9.747540
2023-05-09T04:40:02.963Z,9.747417
2023-05-09T04:41:02.958Z,9.747451
2023-05-09T04:42:02.945Z,9.747483
2023-05-09T04:43:02.936Z,9.747414
2023-05-09T04:44:02.957Z,9.747445
2023-05-09T04:45:02.954Z,9.747491
2023-05-09T04:46:02.943Z,9.747451
2023-05-09T04:47:02.909Z,9.747470
2023-05-09T04:48:02.970Z,9.747516
2023-05-09T04:49:02.930Z,9.747552
2023-05-09T04:50:02.897Z,9.747449
2023-05-09T04:51:02.979Z,9.747395
2023-05-09T04:52:02.875Z,9.747459
2023-05-09T04:53:02.896Z,9.747445
2023-05-09T04:54:02.876Z,9.747437
2023-05-09T04:55:02.907Z,9.747511
2023-05-09T04:56:02.841Z,9.747421
2023-05-09T04:57:13.665Z,9.747434
2023-05-09T04:58:04.850Z,9.747432
2023-05-09T04:59:02.818Z,9.747499
2023-05-09T05:00:02.822Z,9.747460
2023-05-09T05:01:02.811Z,9.747410
2023-05-09T05:02:02.972Z,9.747430
2023-05-09T05:03:02.821Z,9.747434
2023-05-09T05:04:02.779Z,9.747459
2023-05-09T05:05:11.622Z,9.747446
2023-05-09T05:06:04.841Z,9.747440
2023-05-09T05:07:02.830Z,9.747489
2023-05-09T05:08:02.769Z,9.747501
2023-05-09T05:09:02.738Z,9.747488
2023-05-09T05:10:02.741Z,9.747431
2023-05-09T05:11:02.720Z,9.747364
2023-05-09T05:12:04.821Z,9.747316
2023-05-09T05:13:03.746Z,9.747467
2023-05-09T05:14:02.711Z,9.747478
2023-05-09T05:15:02.700Z,9.747472
2023-05-09T05:16:02.709Z,9.747542
2023-05-09T05:17:02.705Z,9.747471
2023-05-09T05:18:02.711Z,9.747525
2023-05-09T05:19:02.676Z,9.747403
2023-05-09T05:20:02.708Z,9.747323
2023-05-09T05:21:02.680Z,9.747401
2023-05-09T05:22:02.749Z,9.747514
2023-05-09T05:23:02.639Z,9.747551
2023-05-09T05:24:02.737Z,9.747615
2023-05-09T05:25:02.678Z,9.747536
2023-05-09T05:26:02.748Z,9.747491
2023-05-09T05:27:02.610Z,9.747479
2023-05-09T05:28:02.607Z,9.747400
2023-05-09T05:29:02.589Z,9.747486
2023-05-09T05:30:02.583Z,9.747493
2023-05-09T05:31:02.605Z,9.747356
2023-05-09T05:32:02.585Z,9.747397
2023-05-09T05:33:02.583Z,9.747409
2023-05-09T05:34:02.549Z,9.747416
2023-05-09T05:35:02.612Z,9.747390
2023-05-09T05:36:02.559Z,9.747498
2023-05-09T05:37:02.562Z,9.747443
2023-05-09T05:38:02.608Z,9.747435
2023-05-09T05:39:02.508Z,9.747398
2023-05-09T05:40:02.566Z,9.747419
2023-05-09T05:41:02.496Z,9.747446
2023-05-09T05:42:35.258Z,9.747460
2023-05-09T05:43:02.483Z,9.747534
2023-05-09T05:44:02.477Z,9.747598
2023-05-09T05:45:02.491Z,9.747426
2023-05-09T05:46:02.479Z,9.747394
2023-05-09T05:47:02.477Z,9.747362
2023-05-09T05:48:02.558Z,9.747355
2023-05-09T05:49:02.458Z,9.747543
2023-05-09T05:50:02.451Z,9.747670
2023-05-09T05:51:02.410Z,9.747552
2023-05-09T05:52:03.402Z,9.747489
2023-05-09T05:53:02.403Z,9.747436
2023-05-09T05:54:02.573Z,9.747458
2023-05-09T05:55:02.388Z,9.747510
2023-05-09T05:56:02.394Z,9.747491
2023-05-09T05:57:02.408Z,9.747366
2023-05-09T05:58:02.377Z,9.747428
2023-05-09T05:59:02.384Z,9.747536
2023-05-09T06:00:02.351Z,9.747503
2023-05-09T06:01:02.352Z,9.747414
2023-05-09T06:02:02.390Z,9.747512
2023-05-09T06:03:02.406Z,9.747523
2023-05-09T06:04:02.391Z,9.747569
2023-05-09T06:05:02.316Z,9.747535
2023-05-09T06:06:02.311Z,9.747539
2023-05-09T06:07:02.315Z,9.747348
2023-05-09T06:08:02.381Z,9.747451
2023-05-09T06:09:02.306Z,9.747488
2023-05-09T06:10:02.268Z,9.747518
2023-05-09T06:11:02.263Z,9.747542
2023-05-09T06:12:02.250Z,9.747480
2023-05-09T06:13:02.343Z,9.747333
2023-05-09T06:14:02.251Z,9.747413
2023-05-09T06:15:02.239Z,9.747470
2023-05-09T06:16:15.021Z,9.747604
2023-05-09T06:17:04.266Z,9.747429
2023-05-09T06:18:02.270Z,9.747473
2023-05-09T06:19:02.222Z,9.747590
2023-05-09T06:20:02.191Z,9.747608
2023-05-09T06:21:02.203Z,9.747524
2023-05-09T06:22:02.239Z,9.747501
2023-05-09T06:23:02.176Z,9.747625
2023-05-09T06:24:11.892Z,9.747351
2023-05-09T06:25:04.161Z,9.747599
2023-05-09T06:26:02.235Z,9.747587
2023-05-09T06:27:02.165Z,9.747627
2023-05-09T06:28:02.130Z,9.747573
2023-05-09T06:29:02.174Z,9.747657
2023-05-09T06:30:08.309Z,9.747626
2023-05-09T06:31:04.225Z,9.747525
2023-05-09T06:32:02.136Z,9.747404
2023-05-09T06:33:02.120Z,9.747534
2023-05-09T06:34:02.100Z,9.747544
2023-05-09T06:35:02.084Z,9.747620
2023-05-09T06:36:02.098Z,9.747384
2023-05-09T06:37:02.065Z,9.747509
2023-05-09T06:38:02.068Z,9.747520
2023-05-09T06:39:02.103Z,9.747234
2023-05-09T06:40:02.054Z,9.747413
2023-05-09T06:41:02.062Z,9.747512
2023-05-09T06:42:02.123Z,9.747445
2023-05-09T06:43:02.021Z,9.747536
2023-05-09T06:44:02.012Z,9.747619
2023-05-09T06:45:17.113Z,9.747333
2023-05-09T06:46:02.046Z,9.747523
2023-05-09T06:47:01.997Z,9.747636
2023-05-09T06:48:02.012Z,9.747466
2023-05-09T06:49:02.014Z,9.747493
2023-05-09T06:50:02.010Z,9.747562
2023-05-09T06:51:02.017Z,9.747327
2023-05-09T06:52:01.955Z,9.747309
2023-05-09T06:53:01.959Z,9.747364
2023-05-09T06:54:01.940Z,9.747390
2023-05-09T06:55:02.043Z,9.747404
2023-05-09T06:56:01.924Z,9.747487
2023-05-09T06:57:01.911Z,9.747305
2023-05-09T06:58:01.990Z,9.747356
2023-05-09T06:59:01.919Z,9.747375
2023-05-09T07:00:02.389Z,9.747416
2023-05-09T07:01:01.893Z,9.747376
2023-05-09T07:02:01.956Z,9.747251
2023-05-09T07:03:01.924Z,9.747437
2023-05-09T07:04:01.913Z,9.747339
2023-05-09T07:05:01.957Z,9.747333
2023-05-09T07:06:01.850Z,9.747436
2023-05-09T07:07:01.848Z,9.747411
2023-05-09T07:08:01.832Z,9.747583
2023-05-09T07:09:01.853Z,9.747097
2023-05-09T07:10:10.683Z,9.747133
2023-05-09T07:11:03.812Z,9.747464
2023-05-09T07:12:01.813Z,9.747728
2023-05-09T07:13:01.807Z,9.747426
2023-05-09T07:14:01.906Z,9.747388
2023-05-09T07:15:01.807Z,9.747404
2023-05-09T07:16:01.806Z,9.747330
2023-05-09T07:17:18.153Z,9.747453
2023-05-09T07:18:03.794Z,9.747309
2023-05-09T07:19:01.775Z,9.747272
2023-05-09T07:20:01.743Z,9.747275
2023-05-09T07:21:01.734Z,9.747535
2023-05-09T07:22:01.753Z,9.747355
2023-05-09T07:23:01.824Z,9.747318
2023-05-09T07:24:01.754Z,9.747265
2023-05-09T07:25:01.703Z,9.747411
2023-05-09T07:26:01.699Z,9.747299
2023-05-09T07:27:01.692Z,9.747371
2023-05-09T07:28:01.700Z,9.747375
2023-05-09T07:29:01.684Z,9.747364
2023-05-09T07:30:01.764Z,9.747432
2023-05-09T07:31:01.658Z,9.747425
2023-05-09T07:32:01.730Z,9.747512
2023-05-09T07:33:01.898Z,9.747478
2023-05-09T07:34:01.637Z,9.747441
2023-05-09T07:35:01.634Z,9.747389
2023-05-09T07:36:01.619Z,9.747328
2023-05-09T07:37:01.637Z,9.747472
2023-05-09T07:38:01.597Z,9.747402
2023-05-09T07:39:01.600Z,9.747416
2023-05-09T07:40:01.600Z,9.747324
2023-05-09T07:41:01.610Z,9.747414
2023-05-09T07:42:01.605Z,9.747304
2023-05-09T07:43:01.572Z,9.747363
2023-05-09T07:44:01.551Z,9.747374
2023-05-09T07:45:01.541Z,9.747355
2023-05-09T07:46:01.756Z,9.747191
2023-05-09T07:47:01.553Z,9.747512
2023-05-09T07:48:01.605Z,9.747474
2023-05-09T07:49:01.525Z,9.747436
2023-05-09T07:50:01.524Z,9.747327
2023-05-09T07:51:01.524Z,9.747408
2023-05-09T07:52:01.492Z,9.747347
2023-05-09T07:53:01.498Z,9.747298
2023-05-09T07:54:01.475Z,9.747265
2023-05-09T07:55:01.499Z,9.747291
2023-05-09T07:56:01.499Z,9.747281
2023-05-09T07:57:01.444Z,9.747214
2023-05-09T07:58:01.447Z,9.747211
2023-05-09T07:59:01.448Z,9.747208
2023-05-09T08:00:01.459Z,9.747312
2023-05-09T08:01:01.450Z,9.747361
2023-05-09T08:02:01.524Z,9.747412
2023-05-09T08:03:01.633Z,9.747335
2023-05-09T08:04:01.502Z,9.747427
2023-05-09T08:05:01.435Z,9.747423
2023-05-09T08:06:01.385Z,9.747432
2023-05-09T08:07:01.373Z,9.747372
2023-05-09T08:08:01.367Z,9.747459
2023-05-09T08:09:02.363Z,9.747446
2023-05-09T08:10:01.375Z,9.747407
2023-05-09T08:11:01.380Z,9.747405
2023-05-09T08:12:01.338Z,9.747525
2023-05-09T08:13:01.368Z,9.747509
2023-05-09T08:14:01.346Z,9.747420
2023-05-09T08:15:01.382Z,9.747402
2023-05-09T08:16:01.364Z,9.747437
2023-05-09T08:17:01.301Z,9.747602
2023-05-09T08:18:01.433Z,9.747492
2023-05-09T08:19:01.309Z,9.747364
2023-05-09T08:20:01.308Z,9.747394
2023-05-09T08:21:01.270Z,9.747437
2023-05-09T08:22:01.299Z,9.747382
2023-05-09T08:23:02.262Z,9.747413
2023-05-09T08:24:01.279Z,9.747316
2023-05-09T08:25:01.248Z,9.747348
2023-05-09T08:26:01.252Z,9.747444
2023-05-09T08:27:01.236Z,9.747568
2023-05-09T08:28:01.249Z,9.747478
2023-05-09T08:29:01.247Z,9.747398
2023-05-09T08:30:01.232Z,9.747361
2023-05-09T08:31:01.267Z,9.747385
2023-05-09T08:32:01.207Z,9.747437
2023-05-09T08:33:01.257Z,9.747266
2023-05-09T08:34:01.253Z,9.747327
2023-05-09T08:35:01.157Z,9.747266
2023-05-09T08:36:01.180Z,9.747218
2023-05-09T08:37:01.157Z,9.747396
2023-05-09T08:38:01.190Z,9.747400
2023-05-09T08:39:01.135Z,9.747312
2023-05-09T08:40:01.126Z,9.747346
2023-05-09T08:41:01.121Z,9.747370
2023-05-09T08:42:01.116Z,9.747387
2023-05-09T08:43:01.127Z,9.747332
2023-05-09T08:44:01.101Z,9.747373
2023-05-09T08:45:01.090Z,9.747428
2023-05-09T08:46:01.213Z,9.747386
2023-05-09T08:47:01.270Z,9.747439
2023-05-09T08:48:01.120Z,9.747387
2023-05-09T08:49:01.061Z,9.747352
2023-05-09T08:50:01.151Z,9.747297
2023-05-09T08:51:01.072Z,9.747314
2023-05-09T08:52:01.063Z,9.747325
2023-05-09T08:53:01.047Z,9.747272
2023-05-09T08:54:02.018Z,9.747323
2023-05-09T08:55:01.032Z,9.747404
2023-05-09T08:56:01.009Z,9.747346
2023-05-09T08:57:01.016Z,9.747306
2023-05-09T08:58:00.987Z,9.747297
2023-05-09T08:59:00.998Z,9.747339
2023-05-09T09:00:00.969Z,9.747319
2023-05-09T09:01:00.965Z,9.747421
2023-05-09T09:02:01.012Z,9.747435
2023-05-09T09:03:00.969Z,9.747370
2023-05-09T09:04:00.956Z,9.747388
2023-05-09T09:05:00.948Z,9.747334
2023-05-09T09:06:01.090Z,9.747452
2023-05-09T09:07:00.961Z,9.747431
2023-05-09T09:08:00.914Z,9.747412
2023-05-09T09:09:00.910Z,9.747304
2023-05-09T09:10:00.904Z,9.747313
2023-05-09T09:11:00.929Z,9.747359
2023-05-09T09:12:00.905Z,9.747367
2023-05-09T09:13:00.879Z,9.747313
2023-05-09T09:14:01.851Z,9.747416
2023-05-09T09:15:00.889Z,9.747381
2023-05-09T09:16:00.949Z,9.747332
2023-05-09T09:17:00.878Z,9.747305
2023-05-09T09:18:01.078Z,9.747400
2023-05-09T09:19:00.828Z,9.747357
2023-05-09T09:20:00.843Z,9.747479
2023-05-09T09:21:00.838Z,9.747417
2023-05-09T09:22:00.900Z,9.747400
2023-05-09T09:23:00.801Z,9.747369
2023-05-09T09:24:00.802Z,9.747298
2023-05-09T09:25:00.836Z,9.747390
2023-05-09T09:26:01.017Z,9.747428
2023-05-09T09:27:00.768Z,9.747333
2023-05-09T09:28:00.756Z,9.747357
2023-05-09T09:29:00.764Z,9.747459
2023-05-09T09:30:00.794Z,9.747457
2023-05-09T09:31:00.743Z,9.747498
2023-05-09T09:32:00.777Z,9.747473
2023-05-09T09:33:00.802Z,9.747451
2023-05-09T09:34:00.734Z,9.747439
2023-05-09T09:35:01.751Z,9.747394
2023-05-09T09:36:00.709Z,9.747367
2023-05-09T09:37:00.735Z,9.747406
2023-05-09T09:38:00.775Z,9.747383
2023-05-09T09:39:00.705Z,9.747419
2023-05-09T09:40:00.678Z,9.747420
2023-05-09T09:41:00.661Z,9.747432
2023-05-09T09:42:00.783Z,9.747416
2023-05-09T09:43:00.652Z,9.747407
2023-05-09T09:44:00.669Z,9.747350
2023-05-09T09:45:00.627Z,9.747383
2023-05-09T09:46:00.653Z,9.747380
2023-05-09T09:47:00.611Z,9.747425
2023-05-09T09:48:00.660Z,9.747445
2023-05-09T09:49:00.629Z,9.747452
2023-05-09T09:50:00.601Z,9.747541
2023-05-09T09:51:00.585Z,9.747505
2023-05-09T09:52:00.585Z,9.747499
2023-05-09T09:53:00.606Z,9.747554
2023-05-09T09:54:00.564Z,9.747570
2023-05-09T09:55:00.551Z,9.747531
2023-05-09T09:56:00.564Z,9.747491
2023-05-09T09:57:00.546Z,9.747508
2023-05-09T09:58:00.557Z,9.747564
2023-05-09T09:59:00.522Z,9.747573
2023-05-09T10:00:00.545Z,9.747495
2023-05-09T10:01:00.515Z,9.747569
2023-05-09T10:02:00.530Z,9.747581
2023-05-09T10:03:00.550Z,9.747586
2023-05-09T10:04:01.522Z,9.747479
2023-05-09T10:05:00.477Z,9.747557
2023-05-09T10:06:00.467Z,9.747565
2023-05-09T10:07:00.496Z,9.747546
2023-05-09T10:08:00.468Z,9.747541
2023-05-09T10:09:00.447Z,9.747562
2023-05-09T10:10:00.539Z,9.747540
2023-05-09T10:11:00.432Z,9.747539
2023-05-09T10:12:00.450Z,9.747588
2023-05-09T10:13:00.452Z,9.747414
2023-05-09T10:14:00.415Z,9.747516
2023-05-09T10:15:00.406Z,9.747679
2023-05-09T10:16:00.596Z,9.747576
2023-05-09T10:17:00.455Z,9.747483
2023-05-09T10:18:01.506Z,9.747537
2023-05-09T10:19:00.396Z,9.747527
2023-05-09T10:20:00.363Z,9.747543
2023-05-09T10:21:00.399Z,9.747603
2023-05-09T10:22:00.359Z,9.747597
2023-05-09T10:23:00.344Z,9.747589
2023-05-09T10:24:00.355Z,9.747494
2023-05-09T10:25:00.339Z,9.747441
2023-05-09T10:26:00.419Z,9.747520
2023-05-09T10:27:00.319Z,9.747570
2023-05-09T10:28:00.307Z,9.747549
2023-05-09T10:29:00.300Z,9.747497
2023-05-09T10:30:00.325Z,9.747446
2023-05-09T10:31:00.337Z,9.747369
2023-05-09T10:32:00.268Z,9.747350
2023-05-09T10:33:00.296Z,9.747316
2023-05-09T10:34:00.256Z,9.747340
2023-05-09T10:35:00.278Z,9.747387
2023-05-09T10:36:00.278Z,9.747428
2023-05-09T10:37:00.243Z,9.747448
2023-05-09T10:38:00.226Z,9.747472
2023-05-09T10:39:00.222Z,9.747457
2023-05-09T10:40:00.231Z,9.747502
2023-05-09T10:41:00.199Z,9.747448
2023-05-09T10:42:00.281Z,9.747394
2023-05-09T10:43:00.222Z,9.747416
2023-05-09T10:44:00.203Z,9.747436
2023-05-09T10:45:00.264Z,9.747479
2023-05-09T10:46:00.168Z,9.747368
2023-05-09T10:47:00.292Z,9.747326
2023-05-09T10:48:00.261Z,9.747354
2023-05-09T10:49:00.174Z,9.747437
2023-05-09T10:50:00.165Z,9.747281
2023-05-09T10:51:00.125Z,9.747268
2023-05-09T10:52:00.145Z,9.747269
2023-05-09T10:53:00.128Z,9.747306
2023-05-09T10:54:00.146Z,9.747443
2023-05-09T10:55:00.144Z,9.747357
2023-05-09T10:56:00.122Z,9.747428
2023-05-09T10:57:00.099Z,9.747303
2023-05-09T10:58:00.192Z,9.747313
2023-05-09T10:59:00.111Z,9.747382
2023-05-09T11:00:00.077Z,9.747431
2023-05-09T11:01:00.099Z,9.747452
2023-05-09T11:02:00.080Z,9.747346
2023-05-09T11:03:00.180Z,9.747256
2023-05-09T11:04:00.156Z,9.747362
2023-05-09T11:05:00.030Z,9.747321
2023-05-09T11:06:00.075Z,9.747372
2023-05-09T11:07:00.027Z,9.747328
2023-05-09T11:08:00.054Z,9.747413
2023-05-09T11:08:59.995Z,9.747424
2023-05-09T11:09:59.991Z,9.747431
2023-05-09T11:10:59.982Z,9.747436
2023-05-09T11:11:59.986Z,9.747364
2023-05-09T11:13:00.029Z,9.747340
2023-05-09T11:14:00.050Z,9.747292
2023-05-09T11:14:59.968Z,9.747320
2023-05-09T11:16:00.080Z,9.747424
2023-05-09T11:16:59.977Z,9.747478
2023-05-09T11:18:00.005Z,9.747469
2023-05-09T11:18:59.934Z,9.747474
2023-05-09T11:19:59.930Z,9.747451
2023-05-09T11:20:59.938Z,9.747443
2023-05-09T11:21:59.940Z,9.747519
2023-05-09T11:22:59.903Z,9.747514
2023-05-09T11:23:59.888Z,9.747491
2023-05-09T11:24:59.899Z,9.747507
2023-05-09T11:25:59.882Z,9.747501
2023-05-09T11:26:59.894Z,9.747583
2023-05-09T11:27:59.865Z,9.747541
2023-05-09T11:28:59.861Z,9.747493
2023-05-09T11:29:59.927Z,9.747570
2023-05-09T11:30:59.868Z,9.747515
2023-05-09T11:31:59.888Z,9.747456
2023-05-09T11:32:59.861Z,9.747472
2023-05-09T11:33:59.831Z,9.747470
2023-05-09T11:34:59.815Z,9.747568
2023-05-09T11:35:59.815Z,9.747534
2023-05-09T11:36:59.890Z,9.747538
2023-05-09T11:37:59.785Z,9.747629
2023-05-09T11:38:59.775Z,9.747530
2023-05-09T11:39:59.772Z,9.747555
2023-05-09T11:40:59.799Z,9.747540
2023-05-09T11:42:32.427Z,9.747538
2023-05-09T11:42:59.746Z,9.747402
2023-05-09T11:43:59.751Z,9.747446